Terminal Aerodrome Forecast
Issued by NWS Wilmington, OH

Current Version | Previous Version | Text Only | Print | Product List | Glossary On
Versions: 1 2 3 4 5 6 7 8 9 10 11 12 13 14 15 16 17 18 19 20 21 22 23 24 25 26 27 28 29
000
FTUS41 KILN 171700
TAFCVG
TAF
KCVG 171723Z 1718/1824 VRB03KT P6SM BKN040
     FM180000 VRB03KT P6SM BKN100
     FM180600 VRB03KT P6SM SCT100
     FM181400 04008KT P6SM SCT040=

USA.gov is the U.S. government's official web portal to all federal, state and local government web resources and services.